Portada
METAR-TAF:

METAR-TAF

Aeroports :

Greenville, Mississipí, Estats Units d'Amèrica

latitud: 33-28-58N, longitud: 090-59-08W, altitud: 40 m

Observació

L'informe es va fer fa 46 minuts, a les 01:53 UTC
Vent 3 kt del Nord-Est
Temperatura 31°C
Humitat 75%
Pressió 1012 hPa
Visibilitat: 16.1 km
Cel clar

METAR: KGLH 250153Z 04003KT 10SM CLR 31/26 A2988 RMK AO2 SLP123 T03060261

Hora: 21:39 (02:39 UTC)

Pronòstic

L'informe es va fer fa 2 hores i 50 minuts, a les 23:49 UTC
Pronòstic vàlid del 25 a les 00 UTC al 25 a les 24 UTC
Vent 4 kt amb direcció variable
Visibilitat: 10 km
Escasses núvols a una alçada de 6000 ft

TAF: KGLH 242349Z 2500/2524 VRB04KT P6SM FEW060

Observacions i pronòstics meteorològics de més de 4000 aeroports (METAR i TAF).

Les estacions disponibles són els punts grocs i vermells al mapa.

Posi el ratolí al punt desitjat per veure el nom de l'estació.

Feu clic per veure les observacions i els pronòstics meteorològics.

Per canviar el mapa: feu clic els botons verds amb una creu de color negre per apropar; al botó verd amb un guió per allunyar la imatge; o en les fletxes verdes per a mapes adjacents.


METAR-TAF: